Northeast Philadelphia Airport
KPNE : rendu visible

Aérodrome :











RETROUVEZ-NOUS SUR...

 
LOGIN :

S'inscrire | Disclaimer

   EN    FR    IT 

 









Légende :    VFR   VFR Marginal   IFR   IFR Intensif   IFR Très Intensif
Visi : 
Plafond : 
>= 8 km
>= 3000ft
5 à 8 km
1000 à 3000 ft
1500m à 5 km
500 à 1000 ft
800 à 1500m
200 à 500 ft
< 800m
< 200 ft
Symboles :   Orages  Brouillard  Fortes neiges  Fortes précipitations  Vent > 20 kt






- Altitude de l'aérodrome : 120 ft


KPNE - Northeast Philadelphia

DERNIER METAR :
  • 100654Z 22012G22KT 10SM OVC013 14/12 A2977 RMK AO2 PK WND 21026/0625 SLP081 T01440117

METARs EXPIRÉS :
  • 100554Z 22013G24KT 10SM OVC011 14/12 A2977 RMK AO2 RAE05 SLP079 P0000 60008 T01440117 10144 20111 58010
  • 100454Z 22015G26KT 10SM -RA OVC010 14/11 A2978 RMK AO2 PK WND 22026/0449 RAE24B54 CIG 008V014 SLP084 P0000 T01390111 401390044
  • 100426Z 22012G18KT 10SM OVC010 14/11 A2979 RMK AO2 RAE24 CIG 008V013 P0000 T01390111

TAF KPNE
Valide du 10 à 06h jusqu'au 11 à 06h UTC


100545Z 1006/1106 22010G25KT P6SM OVC010 WS020/22040KT
TEMPO 1006/1009 BKN009
FM101100 23008KT P6SM VCSH OVC010
FM101800 26008G18KT 4SM -RA OVC015
FM110300 31009KT P6SM -RA OVC030



MET'MAP, la Météo Aéronautique d'un coup d'oeil ! - Copyright ORBIFLY Décembre 2007 - Disclaimer

ORBIFLY MET'MAP TEAM :

Programmation & Développement : Alexandra Zaïnal
Sur une idée originale de : Baudouin d'Aumeries
Assistance à la programmation : Marc-Olivier Méhu
Soutien technique & logistique : Manuel Goepfert

Contact : metmap@orbifly.com




SOURCES & CREDITS :

   NOAA       Earth
Advisory